Kane, IL

11:18 AM CDT on October 30, 2014 (GMT -0500)
Saint Louis Regional | Change Station
CLOSE
Current Station
Airport
Location: Alton,
Elevation: 545 ft
Nearby Weather Stations
Active Advisory: Freeze Watch

Elev 545 ft 38.89 °N, 90.03 °W | Updated 28 minutes ago

Overcast
Overcast
50 °F
Feels Like 50 °F
N
12
Wind Variable Wind from South

Today
High -- | Low -- °F
--% Chance of Precip.
Yesterday
High -- | Low -- °F
Precip. -- in
7:27 AM 6:02 PM
Waxing Crescent, 45% visible
Pressure 30.14 in
Visibility 10.0 miles
Clouds Mostly Cloudy 11000 ft
Dew Point 39 °F
Humidity 66%
Rainfall 0.00 in
Snow Depth Not available.
UV 2 out of 12
Pollen 1.70 out of 12
Air Quality Not available.
Flu Activity Not available.
METAR KALN 301550Z 17010KT 10SM BKN110 10/04 A3014

More Conditions Fewer Conditions

Pressure 30.14 in
Visibility 10.0 miles
Clouds Mostly Cloudy 11000 ft
Dew Point 39 °F
Humidity 66%
Rainfall 0.00 in
Snow Depth Not available.
UV 2 out of 12
Pollen 1.70 out of 12
Air Quality Not available.
Flu Activity Not available.
METAR KALN 301550Z 17010KT 10SM BKN110 10/04 A3014

More Conditions Fewer Conditions

10-Day Weather Forecast

Almanac

Astronomy

Oct. 30, 2014 Rise Set
Actual Time
Civil Twilight
Nautical Twilight
Astronomical Twilight
Moon
Length of Visible Light
Length of Day
Tomorrow will be .
, % of the Moon is Illuminated

Today's Extremes

State Highs State Lows

Community

WunderPhotos

Upload Photos

1,766,398 photos uploaded!

WunderBlogs® & News

Nearby

Air Quality

  Air Quality AQ Index Pollutant
Not available.

Snow Depth

Station Depth Elevation

Earthquake Activity

City Distance Mag. Time & Date
Minimum magnitude displayed is 2.5.

Coastal Water Temperatures

Place Temperature

Nearby Weather Stations